createdAt,value
2016-12-03T00:00:12.120Z,56.10
2016-12-03T00:01:12.985Z,56.10
2016-12-03T00:02:13.515Z,56.10
2016-12-03T00:03:12.296Z,56.10
2016-12-03T00:04:14.886Z,56.00
2016-12-03T00:05:12.035Z,56.10
2016-12-03T00:06:13.914Z,56.10
2016-12-03T00:07:14.492Z,56.20
2016-12-03T00:08:08.847Z,is
2016-12-03T00:09:12.163Z,56.10
2016-12-03T00:10:10.995Z,is
2016-12-03T00:11:10.808Z,is
2016-12-03T00:12:14.796Z,56.00
2016-12-03T00:13:12.467Z,56.20
2016-12-03T00:14:17.063Z,56.00
2016-12-03T00:15:12.137Z,56.10
2016-12-03T00:16:18.688Z,56.20
2016-12-03T00:17:12.745Z,56.10
2016-12-03T00:18:10.464Z,is
2016-12-03T00:19:12.722Z,55.20
2016-12-03T00:20:11.812Z,56.10
2016-12-03T00:21:10.721Z,is
2016-12-03T00:22:12.508Z,56.20
2016-12-03T00:23:13.060Z,56.20
2016-12-03T00:24:12.195Z,56.10
2016-12-03T00:25:12.710Z,56.10
2016-12-03T00:26:12.583Z,56.20
2016-12-03T00:27:11.539Z,56.50
2016-12-03T00:28:11.514Z,56.00
2016-12-03T00:29:11.581Z,56.10
2016-12-03T00:30:12.544Z,56.10
2016-12-03T00:31:11.626Z,56.10
2016-12-03T00:32:12.222Z,56.20
2016-12-03T00:33:13.284Z,56.00
2016-12-03T00:34:13.195Z,56.10
2016-12-03T00:35:13.944Z,56.20
2016-12-03T00:36:12.015Z,56.10
2016-12-03T00:37:18.688Z,56.10
2016-12-03T00:38:12.323Z,56.10
2016-12-03T00:39:12.664Z,56.00
2016-12-03T00:40:12.109Z,56.00
2016-12-03T00:41:12.163Z,56.10
2016-12-03T00:42:13.527Z,56.10
2016-12-03T00:43:12.231Z,56.00
2016-12-03T00:44:12.275Z,56.10
2016-12-03T00:45:12.832Z,56.10
2016-12-03T00:46:12.773Z,56.10
2016-12-03T00:47:11.894Z,56.20
2016-12-03T00:48:11.765Z,56.10
2016-12-03T00:49:14.504Z,56.00
2016-12-03T00:50:12.127Z,56.10
2016-12-03T00:51:12.559Z,56.00
2016-12-03T00:52:12.092Z,55.90
2016-12-03T00:53:12.188Z,56.00
2016-12-03T00:54:12.207Z,56.00
2016-12-03T00:55:13.729Z,55.90
2016-12-03T00:56:13.394Z,56.20
2016-12-03T00:57:12.492Z,56.00
2016-12-03T00:58:12.237Z,56.00
2016-12-03T00:59:12.968Z,56.00
2016-12-03T01:00:13.314Z,56.00
2016-12-03T01:01:12.016Z,55.90
2016-12-03T01:02:13.716Z,56.00
2016-12-03T01:03:12.917Z,is
2016-12-03T01:04:12.017Z,56.00
2016-12-03T01:05:13.664Z,55.90
2016-12-03T01:06:12.286Z,55.90
2016-12-03T01:07:12.497Z,55.90
2016-12-03T01:08:13.128Z,55.80
2016-12-03T01:09:10.878Z,is
2016-12-03T01:10:12.882Z,55.90
2016-12-03T01:11:18.172Z,55.80
2016-12-03T01:12:14.574Z,55.80
2016-12-03T01:13:12.770Z,55.80
2016-12-03T01:14:13.755Z,55.80
2016-12-03T01:15:13.241Z,55.80
2016-12-03T01:16:12.452Z,55.90
2016-12-03T01:17:12.225Z,55.90
2016-12-03T01:18:14.096Z,55.90
2016-12-03T01:19:13.713Z,55.90
2016-12-03T01:20:14.165Z,55.90
2016-12-03T01:21:14.683Z,55.70
2016-12-03T01:22:13.645Z,55.90
2016-12-03T01:23:12.901Z,55.80
2016-12-03T01:24:13.314Z,55.70
2016-12-03T01:25:12.325Z,55.70
2016-12-03T01:26:13.876Z,55.90
2016-12-03T01:27:10.250Z,is
2016-12-03T01:28:14.753Z,55.80
2016-12-03T01:29:16.271Z,55.80
2016-12-03T01:30:12.393Z,55.70
2016-12-03T01:31:14.148Z,55.00
2016-12-03T01:32:11.144Z,is
2016-12-03T01:33:11.921Z,55.70
2016-12-03T01:34:15.025Z,55.70
2016-12-03T01:35:12.588Z,55.70
2016-12-03T01:36:14.395Z,55.70
2016-12-03T01:37:13.704Z,55.70
2016-12-03T01:38:12.761Z,55.60
2016-12-03T01:39:11.786Z,55.60
2016-12-03T01:40:12.490Z,55.70
2016-12-03T01:41:11.853Z,55.70
2016-12-03T01:42:12.814Z,55.70
2016-12-03T01:43:13.228Z,55.70
2016-12-03T01:44:10.030Z,is
2016-12-03T01:45:14.857Z,55.70
2016-12-03T01:46:13.286Z,55.60
2016-12-03T01:47:13.837Z,55.70
2016-12-03T01:48:12.423Z,55.70
2016-12-03T01:49:11.506Z,55.60
2016-12-03T01:50:13.229Z,55.60
2016-12-03T01:51:14.933Z,55.70
2016-12-03T01:52:12.933Z,55.60
2016-12-03T01:53:12.897Z,55.50
2016-12-03T01:54:12.963Z,55.60
2016-12-03T01:55:12.687Z,55.60
2016-12-03T01:56:11.727Z,56.10
2016-12-03T01:57:16.426Z,55.60
2016-12-03T01:58:13.533Z,55.70
2016-12-03T01:59:12.315Z,55.60
2016-12-03T02:00:11.970Z,55.50
2016-12-03T02:01:13.471Z,55.60
2016-12-03T02:02:11.847Z,55.60
2016-12-03T02:03:11.815Z,55.50
2016-12-03T02:04:11.777Z,55.60
2016-12-03T02:05:11.847Z,55.70
2016-12-03T02:06:13.013Z,55.60
2016-12-03T02:07:12.636Z,55.60
2016-12-03T02:08:13.941Z,55.70
2016-12-03T02:09:14.325Z,55.60
2016-12-03T02:10:13.766Z,55.50
2016-12-03T02:11:13.452Z,55.70
2016-12-03T02:12:14.461Z,55.70
2016-12-03T02:13:13.786Z,55.70
2016-12-03T02:14:12.772Z,56.20
2016-12-03T02:15:11.737Z,55.60
2016-12-03T02:16:12.721Z,55.60
2016-12-03T02:17:14.345Z,55.70
2016-12-03T02:18:13.342Z,55.60
2016-12-03T02:19:12.869Z,55.70
2016-12-03T02:20:13.170Z,55.70
2016-12-03T02:21:10.360Z,is
2016-12-03T02:22:14.115Z,55.50
2016-12-03T02:23:12.457Z,55.60
2016-12-03T02:24:11.408Z,55.50
2016-12-03T02:25:11.994Z,55.70
2016-12-03T02:26:10.592Z,is
2016-12-03T02:27:12.894Z,55.70
2016-12-03T02:28:13.546Z,55.50
2016-12-03T02:29:11.621Z,55.50
2016-12-03T02:30:12.126Z,55.60
2016-12-03T02:31:12.809Z,55.50
2016-12-03T02:32:12.571Z,55.50
2016-12-03T02:33:14.368Z,55.50
2016-12-03T02:34:12.394Z,55.50
2016-12-03T02:35:13.397Z,55.60
2016-12-03T02:36:12.686Z,55.60
2016-12-03T02:37:11.887Z,55.50
2016-12-03T02:38:12.592Z,55.50
2016-12-03T02:39:13.845Z,55.60
2016-12-03T02:40:13.155Z,55.50
2016-12-03T02:41:12.748Z,55.60
2016-12-03T02:42:12.875Z,55.60
2016-12-03T02:43:12.377Z,55.50
2016-12-03T02:44:12.856Z,55.60
2016-12-03T02:45:11.779Z,56.10
2016-12-03T02:46:12.438Z,55.50
2016-12-03T02:47:12.562Z,55.50
2016-12-03T02:48:12.094Z,55.50
2016-12-03T02:49:13.037Z,55.60
2016-12-03T02:50:12.496Z,55.50
2016-12-03T02:51:12.092Z,55.60
2016-12-03T02:52:13.851Z,55.60
2016-12-03T02:53:12.624Z,55.60
2016-12-03T02:54:12.770Z,55.50
2016-12-03T02:55:12.042Z,55.50
2016-12-03T02:56:12.723Z,55.60
2016-12-03T02:57:10.404Z,is
2016-12-03T02:58:12.242Z,55.50
2016-12-03T02:59:13.471Z,55.50
2016-12-03T03:00:11.412Z,55.40
2016-12-03T03:01:11.404Z,55.50
2016-12-03T03:02:11.513Z,55.50
2016-12-03T03:03:12.303Z,55.50
2016-12-03T03:04:12.923Z,55.50
2016-12-03T03:05:10.314Z,is
2016-12-03T03:06:13.585Z,55.60
2016-12-03T03:07:12.734Z,55.50
2016-12-03T03:08:12.525Z,55.50
2016-12-03T03:09:12.545Z,55.60
2016-12-03T03:10:12.555Z,55.50
2016-12-03T03:11:12.406Z,55.40
2016-12-03T03:12:12.013Z,55.50
2016-12-03T03:13:13.518Z,55.60
2016-12-03T03:14:12.345Z,55.50
2016-12-03T03:15:13.027Z,55.40
2016-12-03T03:16:11.997Z,55.40
2016-12-03T03:17:12.668Z,55.40
2016-12-03T03:18:11.737Z,55.40
2016-12-03T03:19:11.849Z,55.50
2016-12-03T03:20:13.361Z,55.60
2016-12-03T03:21:11.041Z,is
2016-12-03T03:22:12.259Z,55.50
2016-12-03T03:23:12.338Z,55.70
2016-12-03T03:24:13.568Z,55.50
2016-12-03T03:25:12.114Z,55.50
2016-12-03T03:26:13.562Z,55.60
2016-12-03T03:27:10.244Z,is
2016-12-03T03:28:12.358Z,55.60
2016-12-03T03:29:12.895Z,55.60
2016-12-03T03:30:12.999Z,55.60
2016-12-03T03:31:12.028Z,55.40
2016-12-03T03:32:12.755Z,55.50
2016-12-03T03:33:12.236Z,55.40
2016-12-03T03:34:11.036Z,is
2016-12-03T03:35:13.268Z,55.40
2016-12-03T03:36:12.404Z,55.40
2016-12-03T03:37:09.279Z,is
2016-12-03T03:38:18.741Z,55.40
2016-12-03T03:39:09.826Z,is
2016-12-03T03:40:15.446Z,55.40
2016-12-03T03:41:11.607Z,55.40
2016-12-03T03:42:12.599Z,55.40
2016-12-03T03:43:12.524Z,55.40
2016-12-03T03:44:11.507Z,55.40
2016-12-03T03:45:13.250Z,55.50
2016-12-03T03:46:12.170Z,55.30
2016-12-03T03:47:12.128Z,55.30
2016-12-03T03:48:13.194Z,55.50
2016-12-03T03:49:12.651Z,55.50
2016-12-03T03:50:13.124Z,55.40
2016-12-03T03:51:12.056Z,55.30
2016-12-03T03:52:12.185Z,55.40
2016-12-03T03:53:12.667Z,55.40
2016-12-03T03:54:12.332Z,55.40
2016-12-03T03:55:13.335Z,55.50
2016-12-03T03:56:10.840Z,is
2016-12-03T03:57:12.751Z,55.50
2016-12-03T03:58:12.566Z,55.50
2016-12-03T03:59:11.141Z,is
2016-12-03T04:00:14.447Z,55.40
2016-12-03T04:01:12.293Z,55.50
2016-12-03T04:02:13.043Z,55.50
2016-12-03T04:03:12.494Z,55.30
2016-12-03T04:04:12.216Z,55.50
2016-12-03T04:05:10.239Z,is
2016-12-03T04:06:13.220Z,55.40
2016-12-03T04:07:12.202Z,55.40
2016-12-03T04:08:13.240Z,55.40
2016-12-03T04:09:12.638Z,55.30
2016-12-03T04:10:12.392Z,55.30
2016-12-03T04:11:12.117Z,55.20
2016-12-03T04:12:12.485Z,55.30
2016-12-03T04:13:14.514Z,55.40
2016-12-03T04:14:13.515Z,55.20
2016-12-03T04:15:11.555Z,55.40
2016-12-03T04:16:12.463Z,55.30
2016-12-03T04:17:13.690Z,55.40
2016-12-03T04:18:13.219Z,55.30
2016-12-03T04:19:12.852Z,55.40
2016-12-03T04:20:11.873Z,55.30
2016-12-03T04:21:14.547Z,55.30
2016-12-03T04:22:12.372Z,55.30
2016-12-03T04:23:11.482Z,55.40
2016-12-03T04:24:12.212Z,55.40
2016-12-03T04:25:13.097Z,55.30
2016-12-03T04:26:17.705Z,55.20
2016-12-03T04:27:12.330Z,55.30
2016-12-03T04:28:13.841Z,55.30
2016-12-03T04:29:13.204Z,55.20
2016-12-03T04:30:12.166Z,55.20
2016-12-03T04:31:12.019Z,55.30
2016-12-03T04:32:12.383Z,55.20
2016-12-03T04:33:09.336Z,is
2016-12-03T04:34:12.421Z,55.20
2016-12-03T04:35:12.383Z,55.20
2016-12-03T04:36:13.015Z,55.20
2016-12-03T04:37:10.572Z,is
2016-12-03T04:38:12.526Z,55.30
2016-12-03T04:39:12.626Z,55.30
2016-12-03T04:40:13.113Z,55.30
2016-12-03T04:41:11.909Z,55.20
2016-12-03T04:42:11.760Z,55.30
2016-12-03T04:43:11.693Z,55.20
2016-12-03T04:44:13.361Z,55.20
2016-12-03T04:45:12.401Z,55.20
2016-12-03T04:46:12.214Z,55.30
2016-12-03T04:47:13.033Z,55.30
2016-12-03T04:48:12.139Z,55.30
2016-12-03T04:49:12.652Z,55.30
2016-12-03T04:50:12.371Z,55.30
2016-12-03T04:51:12.433Z,55.20
2016-12-03T04:52:13.249Z,55.30
2016-12-03T04:53:12.622Z,55.30
2016-12-03T04:54:13.592Z,55.30
2016-12-03T04:55:12.465Z,55.30
2016-12-03T04:56:12.384Z,55.20
2016-12-03T04:57:11.177Z,is
2016-12-03T04:58:13.423Z,55.20
2016-12-03T04:59:11.992Z,55.30
2016-12-03T05:00:12.596Z,55.20
2016-12-03T05:01:11.682Z,55.20
2016-12-03T05:02:12.397Z,55.20
2016-12-03T05:03:12.088Z,55.30
2016-12-03T05:04:13.853Z,55.20
2016-12-03T05:05:13.483Z,55.20
2016-12-03T05:06:12.947Z,55.30
2016-12-03T05:07:10.768Z,is
2016-12-03T05:08:12.619Z,55.20
2016-12-03T05:09:11.713Z,55.20
2016-12-03T05:10:13.452Z,55.20
2016-12-03T05:11:13.301Z,55.20
2016-12-03T05:12:13.861Z,55.30
2016-12-03T05:13:13.100Z,55.20
2016-12-03T05:14:12.483Z,55.20
2016-12-03T05:15:12.044Z,55.20
2016-12-03T05:16:12.553Z,55.20
2016-12-03T05:17:12.610Z,55.20
2016-12-03T05:18:12.238Z,55.20
2016-12-03T05:19:14.129Z,55.20
2016-12-03T05:20:11.492Z,55.20
2016-12-03T05:21:12.168Z,55.30
2016-12-03T05:22:18.419Z,55.20
2016-12-03T05:23:14.520Z,55.20
2016-12-03T05:24:11.568Z,55.20
2016-12-03T05:25:15.636Z,55.20
2016-12-03T05:26:12.214Z,55.20
2016-12-03T05:27:12.900Z,55.20
2016-12-03T05:28:12.814Z,55.30
2016-12-03T05:29:10.640Z,is
2016-12-03T05:30:12.578Z,55.20
2016-12-03T05:31:12.571Z,55.20
2016-12-03T05:32:09.650Z,is
2016-12-03T05:33:12.019Z,55.20
2016-12-03T05:34:12.084Z,55.20
2016-12-03T05:35:12.492Z,55.20
2016-12-03T05:36:12.492Z,55.30
2016-12-03T05:37:12.131Z,55.20
2016-12-03T05:38:12.566Z,55.30
2016-12-03T05:39:11.811Z,55.20
2016-12-03T05:40:13.433Z,55.20
2016-12-03T05:41:11.478Z,55.10
2016-12-03T05:42:12.025Z,55.10
2016-12-03T05:43:13.411Z,55.20
2016-12-03T05:44:11.996Z,55.20
2016-12-03T05:45:12.769Z,55.20
2016-12-03T05:46:11.652Z,55.20
2016-12-03T05:47:12.528Z,55.10
2016-12-03T05:48:11.946Z,55.20
2016-12-03T05:49:12.962Z,55.40
2016-12-03T05:50:12.858Z,55.20
2016-12-03T05:51:10.820Z,is
2016-12-03T05:52:12.922Z,55.30
2016-12-03T05:53:11.952Z,55.10
2016-12-03T05:54:13.559Z,55.10
2016-12-03T05:55:13.149Z,55.20
2016-12-03T05:56:12.831Z,55.20
2016-12-03T05:57:13.392Z,55.20
2016-12-03T05:58:11.366Z,55.10
2016-12-03T05:59:12.661Z,55.10
2016-12-03T06:00:12.096Z,55.20
2016-12-03T06:01:13.080Z,55.20
2016-12-03T06:02:12.711Z,55.20
2016-12-03T06:03:11.691Z,55.10
2016-12-03T06:04:12.523Z,55.10
2016-12-03T06:05:12.229Z,55.20
2016-12-03T06:06:12.923Z,55.10
2016-12-03T06:07:12.337Z,55.10
2016-12-03T06:08:13.152Z,55.10
2016-12-03T06:09:11.984Z,55.00
2016-12-03T06:10:11.939Z,55.10
2016-12-03T06:11:12.017Z,55.10
2016-12-03T06:12:12.098Z,55.10
2016-12-03T06:13:12.807Z,55.20
2016-12-03T06:14:11.793Z,55.10
2016-12-03T06:15:11.800Z,55.10
2016-12-03T06:16:11.942Z,55.10
2016-12-03T06:17:13.451Z,55.20
2016-12-03T06:18:11.365Z,55.10
2016-12-03T06:19:12.632Z,55.10
2016-12-03T06:20:11.634Z,55.10
2016-12-03T06:21:12.460Z,55.10
2016-12-03T06:22:11.473Z,55.00
2016-12-03T06:23:12.995Z,55.10
2016-12-03T06:24:12.900Z,55.20
2016-12-03T06:25:12.424Z,55.10
2016-12-03T06:26:12.464Z,55.10
2016-12-03T06:27:11.594Z,55.10
2016-12-03T06:28:12.141Z,55.10
2016-12-03T06:29:12.701Z,55.10
2016-12-03T06:30:10.416Z,is
2016-12-03T06:31:11.502Z,55.10
2016-12-03T06:32:13.240Z,55.30
2016-12-03T06:33:12.767Z,55.20
2016-12-03T06:34:12.643Z,55.20
2016-12-03T06:35:11.723Z,55.00
2016-12-03T06:36:12.894Z,55.10
2016-12-03T06:37:12.722Z,55.10
2016-12-03T06:38:12.874Z,55.10
2016-12-03T06:39:09.273Z,is
2016-12-03T06:40:12.654Z,55.10
2016-12-03T06:41:12.354Z,55.20
2016-12-03T06:42:12.693Z,55.10
2016-12-03T06:43:11.828Z,55.10
2016-12-03T06:44:11.934Z,55.10
2016-12-03T06:45:12.768Z,55.20
2016-12-03T06:46:14.588Z,55.00
2016-12-03T06:47:13.557Z,55.20
2016-12-03T06:48:12.141Z,55.00
2016-12-03T06:49:13.249Z,55.10
2016-12-03T06:50:14.193Z,55.10
2016-12-03T06:51:13.003Z,55.10
2016-12-03T06:52:10.682Z,is
2016-12-03T06:53:13.288Z,55.70
2016-12-03T06:54:12.499Z,55.10
2016-12-03T06:55:13.132Z,55.10
2016-12-03T06:56:12.132Z,55.10
2016-12-03T06:57:13.429Z,55.10
2016-12-03T06:58:11.577Z,55.10
2016-12-03T06:59:13.214Z,55.20
2016-12-03T07:00:12.252Z,55.10
2016-12-03T07:01:13.429Z,55.20
2016-12-03T07:02:11.941Z,55.10
2016-12-03T07:03:12.999Z,55.20
2016-12-03T07:04:12.492Z,55.10
2016-12-03T07:05:12.520Z,55.10
2016-12-03T07:06:12.116Z,55.10
2016-12-03T07:07:12.154Z,55.10
2016-12-03T07:08:12.616Z,55.10
2016-12-03T07:09:13.142Z,55.20
2016-12-03T07:10:12.849Z,55.20
2016-12-03T07:11:11.957Z,55.90
2016-12-03T07:12:12.373Z,55.90
2016-12-03T07:13:13.115Z,55.90
2016-12-03T07:14:12.041Z,55.70
2016-12-03T07:15:12.684Z,38.10
2016-12-03T07:16:10.113Z,is
2016-12-03T07:17:10.077Z,is
2016-12-03T07:18:12.705Z,34.20
2016-12-03T07:19:12.196Z,37.70
2016-12-03T07:20:12.741Z,36.90
2016-12-03T07:21:13.522Z,35.90
2016-12-03T07:22:13.850Z,39.00
2016-12-03T07:23:12.716Z,40.20
2016-12-03T07:24:11.705Z,40.50
2016-12-03T07:25:11.652Z,40.60
2016-12-03T07:26:12.365Z,40.60
2016-12-03T07:27:12.928Z,41.10
2016-12-03T07:28:12.607Z,40.70
2016-12-03T07:29:11.728Z,40.50
2016-12-03T07:30:11.732Z,40.60
2016-12-03T07:31:12.361Z,41.10
2016-12-03T07:32:12.706Z,41.10
2016-12-03T07:33:12.522Z,41.60
2016-12-03T07:34:11.443Z,41.90
2016-12-03T07:35:09.449Z,is
2016-12-03T07:36:13.327Z,42.60
2016-12-03T07:37:10.852Z,is
2016-12-03T07:38:12.966Z,40.90
2016-12-03T07:39:13.795Z,40.60
2016-12-03T07:40:11.863Z,41.20
2016-12-03T07:41:11.996Z,41.50
2016-12-03T07:42:12.121Z,42.00
2016-12-03T07:43:12.145Z,42.50
2016-12-03T07:44:12.867Z,42.90
2016-12-03T07:45:12.667Z,43.40
2016-12-03T07:46:12.117Z,43.60
2016-12-03T07:47:12.520Z,43.70
2016-12-03T07:48:11.519Z,43.80
2016-12-03T07:49:11.558Z,43.70
2016-12-03T07:50:13.308Z,43.90
2016-12-03T07:51:12.387Z,43.80
2016-12-03T07:52:11.424Z,43.80
2016-12-03T07:53:12.105Z,44.10
2016-12-03T07:54:13.032Z,44.50
2016-12-03T07:55:12.157Z,44.50
2016-12-03T07:56:12.514Z,44.80
2016-12-03T07:57:11.570Z,45.00
2016-12-03T07:58:11.991Z,45.20
2016-12-03T07:59:12.523Z,45.20
2016-12-03T08:00:11.605Z,45.30
2016-12-03T08:01:12.248Z,45.50
2016-12-03T08:02:13.079Z,45.70
2016-12-03T08:03:12.079Z,45.90
2016-12-03T08:04:12.127Z,45.90
2016-12-03T08:05:12.572Z,46.00
2016-12-03T08:06:11.603Z,46.00
2016-12-03T08:07:11.683Z,46.00
2016-12-03T08:08:11.529Z,46.20
2016-12-03T08:09:09.567Z,is
2016-12-03T08:10:11.766Z,46.30
2016-12-03T08:11:12.733Z,46.50
2016-12-03T08:12:11.916Z,46.50
2016-12-03T08:13:12.000Z,46.70
2016-12-03T08:14:13.551Z,46.80
2016-12-03T08:15:13.159Z,46.80
2016-12-03T08:16:12.798Z,46.80
2016-12-03T08:17:12.555Z,46.90
2016-12-03T08:18:11.489Z,47.10
2016-12-03T08:19:12.265Z,47.20
2016-12-03T08:20:12.770Z,47.10
2016-12-03T08:21:11.838Z,47.20
2016-12-03T08:22:12.280Z,47.10
2016-12-03T08:23:12.887Z,47.40
2016-12-03T08:24:12.428Z,47.30
2016-12-03T08:25:11.654Z,47.50
2016-12-03T08:26:11.811Z,47.50
2016-12-03T08:27:12.740Z,47.70
2016-12-03T08:28:12.190Z,47.60
2016-12-03T08:29:12.222Z,47.60
2016-12-03T08:30:12.889Z,47.80
2016-12-03T08:31:11.976Z,47.80
2016-12-03T08:32:12.116Z,47.90
2016-12-03T08:33:12.834Z,47.90
2016-12-03T08:34:12.619Z,47.90
2016-12-03T08:35:12.716Z,48.00
2016-12-03T08:36:12.431Z,48.10
2016-12-03T08:37:13.026Z,48.10
2016-12-03T08:38:09.171Z,is
2016-12-03T08:39:10.414Z,is
2016-12-03T08:40:11.838Z,48.10
2016-12-03T08:41:11.838Z,48.20
2016-12-03T08:42:11.716Z,48.20
2016-12-03T08:43:12.229Z,48.30
2016-12-03T08:44:12.748Z,48.30
2016-12-03T08:45:11.768Z,48.30
2016-12-03T08:46:10.810Z,is
2016-12-03T08:47:11.860Z,48.40
2016-12-03T08:48:12.578Z,48.60
2016-12-03T08:49:12.354Z,48.60
2016-12-03T08:50:11.145Z,is
2016-12-03T08:51:12.146Z,48.70
2016-12-03T08:52:13.760Z,48.70
2016-12-03T08:53:12.175Z,48.70
2016-12-03T08:54:12.600Z,48.70
2016-12-03T08:55:12.219Z,48.80
2016-12-03T08:56:12.712Z,48.80
2016-12-03T08:57:11.756Z,48.80
2016-12-03T08:58:11.876Z,48.90
2016-12-03T08:59:12.011Z,48.90
2016-12-03T09:00:12.697Z,49.00
2016-12-03T09:01:12.363Z,49.00
2016-12-03T09:02:11.435Z,49.00
2016-12-03T09:03:12.061Z,49.20
2016-12-03T09:04:12.907Z,49.00
2016-12-03T09:05:11.880Z,49.00
2016-12-03T09:06:12.588Z,49.10
2016-12-03T09:07:12.219Z,49.20
2016-12-03T09:08:12.708Z,49.20
2016-12-03T09:09:12.225Z,49.40
2016-12-03T09:10:13.840Z,49.30
2016-12-03T09:11:11.879Z,49.30
2016-12-03T09:12:12.656Z,49.40
2016-12-03T09:13:11.571Z,49.30
2016-12-03T09:14:11.600Z,49.40
2016-12-03T09:15:11.699Z,49.40
2016-12-03T09:16:11.782Z,49.50
2016-12-03T09:17:12.552Z,49.60
2016-12-03T09:18:11.770Z,49.60
2016-12-03T09:19:11.818Z,49.60
2016-12-03T09:20:16.253Z,is
2016-12-03T09:21:12.711Z,49.70
2016-12-03T09:22:12.600Z,49.80
2016-12-03T09:23:11.537Z,49.70
2016-12-03T09:24:13.087Z,49.80
2016-12-03T09:25:12.110Z,49.80
2016-12-03T09:26:13.719Z,50.00
2016-12-03T09:27:11.799Z,49.90
2016-12-03T09:28:11.929Z,50.00
2016-12-03T09:29:11.891Z,49.90
2016-12-03T09:30:11.988Z,50.00
2016-12-03T09:31:12.331Z,50.00
2016-12-03T09:32:12.435Z,50.00
2016-12-03T09:33:11.416Z,50.00
2016-12-03T09:34:12.339Z,50.00
2016-12-03T09:35:12.061Z,50.00
2016-12-03T09:36:12.179Z,50.00
2016-12-03T09:37:12.150Z,50.00
2016-12-03T09:38:12.177Z,50.00
2016-12-03T09:39:10.972Z,is
2016-12-03T09:40:12.272Z,50.00
2016-12-03T09:41:10.888Z,is
2016-12-03T09:42:11.861Z,50.00
2016-12-03T09:43:12.498Z,50.00
2016-12-03T09:44:11.420Z,50.00
2016-12-03T09:45:13.162Z,50.00
2016-12-03T09:46:12.100Z,50.00
2016-12-03T09:47:11.971Z,50.00
2016-12-03T09:48:09.962Z,is
2016-12-03T09:49:12.648Z,50.00
2016-12-03T09:50:12.539Z,50.10
2016-12-03T09:51:11.396Z,50.10
2016-12-03T09:52:12.384Z,50.00
2016-12-03T09:53:12.348Z,50.00
2016-12-03T09:54:12.391Z,50.00
2016-12-03T09:55:11.436Z,50.00
2016-12-03T09:56:12.147Z,50.10
2016-12-03T09:57:12.064Z,50.10
2016-12-03T09:58:12.532Z,50.10
2016-12-03T09:59:12.808Z,50.00
2016-12-03T10:00:13.623Z,50.10
2016-12-03T10:01:13.158Z,50.10
2016-12-03T10:02:12.640Z,50.10
2016-12-03T10:03:12.668Z,50.00
2016-12-03T10:04:11.892Z,50.00
2016-12-03T10:05:11.824Z,50.00
2016-12-03T10:06:10.471Z,is
2016-12-03T10:07:12.547Z,50.10
2016-12-03T10:08:12.255Z,50.20
2016-12-03T10:09:12.688Z,50.20
2016-12-03T10:10:11.783Z,50.10
2016-12-03T10:11:12.896Z,50.20
2016-12-03T10:12:11.987Z,50.20
2016-12-03T10:13:13.307Z,50.20
2016-12-03T10:14:12.679Z,50.20
2016-12-03T10:15:10.737Z,is
2016-12-03T10:16:11.899Z,50.40
2016-12-03T10:17:11.888Z,50.20
2016-12-03T10:18:12.536Z,50.40
2016-12-03T10:19:12.259Z,50.30
2016-12-03T10:20:12.216Z,50.30
2016-12-03T10:21:12.638Z,50.30
2016-12-03T10:22:11.704Z,50.40
2016-12-03T10:23:12.384Z,50.40
2016-12-03T10:24:11.432Z,50.50
2016-12-03T10:25:12.182Z,50.50
2016-12-03T10:26:13.818Z,50.60
2016-12-03T10:27:12.512Z,50.50
2016-12-03T10:28:11.437Z,50.50
2016-12-03T10:29:11.575Z,50.50
2016-12-03T10:30:13.237Z,50.60
2016-12-03T10:31:15.108Z,50.60
2016-12-03T10:32:12.171Z,50.50
2016-12-03T10:33:12.274Z,50.60
2016-12-03T10:34:12.318Z,50.50
2016-12-03T10:35:12.846Z,50.60
2016-12-03T10:36:13.331Z,50.70
2016-12-03T10:37:13.176Z,50.80
2016-12-03T10:38:10.128Z,is
2016-12-03T10:39:11.436Z,50.60
2016-12-03T10:40:12.278Z,50.80
2016-12-03T10:41:19.301Z,50.60
2016-12-03T10:42:12.183Z,50.80
2016-12-03T10:43:12.235Z,50.80
2016-12-03T10:44:12.194Z,50.80
2016-12-03T10:45:12.985Z,50.80
2016-12-03T10:46:13.552Z,50.80
2016-12-03T10:47:09.024Z,is
2016-12-03T10:48:12.143Z,50.80
2016-12-03T10:49:12.179Z,50.90
2016-12-03T10:50:12.780Z,50.90
2016-12-03T10:51:12.500Z,50.90
2016-12-03T10:52:11.450Z,50.90
2016-12-03T10:53:11.593Z,50.80
2016-12-03T10:54:12.291Z,51.00
2016-12-03T10:55:12.409Z,50.90
2016-12-03T10:56:11.839Z,51.00
2016-12-03T10:57:12.353Z,50.90
2016-12-03T10:58:11.312Z,51.00
2016-12-03T10:59:14.814Z,51.00
2016-12-03T11:00:13.506Z,51.00
2016-12-03T11:01:11.470Z,51.00
2016-12-03T11:02:11.529Z,51.00
2016-12-03T11:03:12.237Z,51.10
2016-12-03T11:04:13.108Z,51.10
2016-12-03T11:05:12.163Z,51.00
2016-12-03T11:06:14.652Z,51.10
2016-12-03T11:07:13.307Z,49.40
2016-12-03T11:08:11.235Z,is
2016-12-03T11:09:12.894Z,50.10
2016-12-03T11:10:12.478Z,50.00
2016-12-03T11:11:09.408Z,is
2016-12-03T11:12:13.607Z,50.50
2016-12-03T11:13:12.400Z,50.80
2016-12-03T11:14:11.561Z,50.80
2016-12-03T11:15:11.639Z,51.00
2016-12-03T11:16:11.707Z,51.50
2016-12-03T11:17:13.639Z,51.50
2016-12-03T11:18:12.178Z,51.70
2016-12-03T11:19:12.114Z,51.90
2016-12-03T11:20:12.180Z,51.30
2016-12-03T11:21:12.607Z,51.00
2016-12-03T11:22:11.609Z,51.10
2016-12-03T11:23:13.487Z,51.20
2016-12-03T11:24:09.548Z,is
2016-12-03T11:25:11.758Z,51.10
2016-12-03T11:26:12.249Z,51.20
2016-12-03T11:27:12.276Z,51.20
2016-12-03T11:28:13.675Z,51.30
2016-12-03T11:29:12.300Z,51.30
2016-12-03T11:30:13.464Z,51.30
2016-12-03T11:31:11.979Z,51.30
2016-12-03T11:32:12.093Z,51.30
2016-12-03T11:33:11.989Z,51.40
2016-12-03T11:34:12.103Z,51.20
2016-12-03T11:35:12.593Z,51.20
2016-12-03T11:36:12.241Z,51.20
2016-12-03T11:37:12.188Z,51.30
2016-12-03T11:38:12.301Z,51.30
2016-12-03T11:39:12.821Z,51.50
2016-12-03T11:40:12.461Z,51.90
2016-12-03T11:41:10.329Z,is
2016-12-03T11:42:11.641Z,51.80
2016-12-03T11:43:11.718Z,51.80
2016-12-03T11:44:12.165Z,51.80
2016-12-03T11:45:10.327Z,is
2016-12-03T11:46:11.589Z,51.90
2016-12-03T11:47:11.631Z,52.10
2016-12-03T11:48:12.229Z,52.00
2016-12-03T11:49:14.066Z,52.50
2016-12-03T11:50:12.637Z,52.50
2016-12-03T11:51:11.581Z,52.90
2016-12-03T11:52:12.264Z,52.50
2016-12-03T11:53:12.626Z,52.80
2016-12-03T11:54:10.462Z,is
2016-12-03T11:55:11.780Z,52.50
2016-12-03T11:56:12.422Z,52.60
2016-12-03T11:57:12.178Z,52.50
2016-12-03T11:58:12.172Z,52.40
2016-12-03T11:59:12.120Z,52.50
2016-12-03T12:00:12.732Z,52.70
2016-12-03T12:01:10.750Z,is
2016-12-03T12:02:11.772Z,52.70
2016-12-03T12:03:12.332Z,53.10
2016-12-03T12:04:12.370Z,52.90
2016-12-03T12:05:14.011Z,52.90
2016-12-03T12:06:12.123Z,52.80
2016-12-03T12:07:10.571Z,is
2016-12-03T12:08:11.909Z,52.60
2016-12-03T12:09:12.420Z,52.60
2016-12-03T12:10:12.333Z,52.80
2016-12-03T12:11:12.356Z,52.60
2016-12-03T12:12:12.821Z,52.60
2016-12-03T12:13:11.983Z,52.50
2016-12-03T12:14:11.993Z,52.50
2016-12-03T12:15:12.630Z,52.80
2016-12-03T12:16:11.582Z,52.70
2016-12-03T12:17:13.599Z,53.10
2016-12-03T12:18:11.561Z,53.00
2016-12-03T12:19:12.310Z,53.00
2016-12-03T12:20:12.355Z,53.00
2016-12-03T12:21:14.017Z,53.10
2016-12-03T12:22:12.868Z,53.20
2016-12-03T12:23:11.853Z,53.10
2016-12-03T12:24:11.973Z,53.10
2016-12-03T12:25:12.654Z,53.30
2016-12-03T12:26:11.815Z,53.20
2016-12-03T12:27:13.613Z,53.30
2016-12-03T12:28:12.354Z,53.30
2016-12-03T12:29:11.272Z,is
2016-12-03T12:30:11.984Z,53.30
2016-12-03T12:31:12.667Z,53.40
2016-12-03T12:32:12.618Z,53.40
2016-12-03T12:33:09.085Z,is
2016-12-03T12:34:12.391Z,53.40
2016-12-03T12:35:12.449Z,53.50
2016-12-03T12:36:11.755Z,53.50
2016-12-03T12:37:11.988Z,53.50
2016-12-03T12:38:10.433Z,is
2016-12-03T12:39:12.240Z,53.60
2016-12-03T12:40:12.946Z,53.70
2016-12-03T12:41:12.375Z,53.60
2016-12-03T12:42:11.545Z,53.60
2016-12-03T12:43:12.228Z,53.70
2016-12-03T12:44:12.151Z,53.70
2016-12-03T12:45:10.831Z,is
2016-12-03T12:46:12.595Z,53.90
2016-12-03T12:47:11.722Z,53.90
2016-12-03T12:48:12.392Z,54.00
2016-12-03T12:49:14.094Z,53.90
2016-12-03T12:50:12.453Z,54.00
2016-12-03T12:51:08.859Z,is
2016-12-03T12:52:12.096Z,54.00
2016-12-03T12:53:12.183Z,54.00
2016-12-03T12:54:12.979Z,54.20
2016-12-03T12:55:12.504Z,54.20
2016-12-03T12:56:10.445Z,is
2016-12-03T12:57:11.763Z,54.10
2016-12-03T12:58:11.919Z,54.20